sensor_id;sensor_type;location;lat;lon;timestamp;temperature;humidity
47626;DHT22;33342;45.574;9.252;2023-05-07T00:02:17;24.00;99.90
47626;DHT22;33342;45.574;9.252;2023-05-07T00:04:44;24.00;99.90
47626;DHT22;33342;45.574;9.252;2023-05-07T00:07:12;24.00;99.90
47626;DHT22;33342;45.574;9.252;2023-05-07T00:09:39;24.00;99.90
47626;DHT22;33342;45.574;9.252;2023-05-07T00:12:07;23.90;99.90
47626;DHT22;33342;45.574;9.252;2023-05-07T00:14:34;23.90;99.90
47626;DHT22;33342;45.574;9.252;2023-05-07T00:17:01;23.90;99.90
47626;DHT22;33342;45.574;9.252;2023-05-07T00:19:28;23.90;99.90
47626;DHT22;33342;45.574;9.252;2023-05-07T00:21:55;23.90;99.90
47626;DHT22;33342;45.574;9.252;2023-05-07T00:24:23;23.90;99.90
47626;DHT22;33342;45.574;9.252;2023-05-07T00:26:50;24.00;99.90
47626;DHT22;33342;45.574;9.252;2023-05-07T00:29:17;23.90;99.90
47626;DHT22;33342;45.574;9.252;2023-05-07T00:31:44;23.90;99.90
47626;DHT22;33342;45.574;9.252;2023-05-07T00:34:11;23.90;99.90
47626;DHT22;33342;45.574;9.252;2023-05-07T00:36:38;23.90;99.90
47626;DHT22;33342;45.574;9.252;2023-05-07T00:39:05;23.90;99.90
47626;DHT22;33342;45.574;9.252;2023-05-07T00:41:32;23.80;99.90
47626;DHT22;33342;45.574;9.252;2023-05-07T00:43:59;23.70;99.90
47626;DHT22;33342;45.574;9.252;2023-05-07T00:46:27;23.60;99.90
47626;DHT22;33342;45.574;9.252;2023-05-07T00:48:55;23.50;99.90
47626;DHT22;33342;45.574;9.252;2023-05-07T00:51:23;23.40;99.90
47626;DHT22;33342;45.574;9.252;2023-05-07T00:53:51;23.30;99.90
47626;DHT22;33342;45.574;9.252;2023-05-07T00:56:22;23.30;99.90
47626;DHT22;33342;45.574;9.252;2023-05-07T00:58:50;23.20;99.90
47626;DHT22;33342;45.574;9.252;2023-05-07T01:01:17;23.10;99.90
47626;DHT22;33342;45.574;9.252;2023-05-07T01:03:44;23.10;99.90
47626;DHT22;33342;45.574;9.252;2023-05-07T01:06:13;23.10;99.90
47626;DHT22;33342;45.574;9.252;2023-05-07T01:08:44;23.00;99.90
47626;DHT22;33342;45.574;9.252;2023-05-07T01:11:12;22.90;99.90
47626;DHT22;33342;45.574;9.252;2023-05-07T01:13:39;22.80;99.90
47626;DHT22;33342;45.574;9.252;2023-05-07T01:16:08;22.80;99.90
47626;DHT22;33342;45.574;9.252;2023-05-07T01:18:36;22.80;99.90
47626;DHT22;33342;45.574;9.252;2023-05-07T01:21:04;22.70;99.90
47626;DHT22;33342;45.574;9.252;2023-05-07T01:23:33;22.70;99.90
47626;DHT22;33342;45.574;9.252;2023-05-07T01:26:01;22.70;99.90
47626;DHT22;33342;45.574;9.252;2023-05-07T01:28:30;22.70;99.90
47626;DHT22;33342;45.574;9.252;2023-05-07T01:31:02;22.70;99.90
47626;DHT22;33342;45.574;9.252;2023-05-07T01:33:33;22.70;99.90
47626;DHT22;33342;45.574;9.252;2023-05-07T01:36:03;22.70;99.90
47626;DHT22;33342;45.574;9.252;2023-05-07T01:38:33;22.70;99.90
47626;DHT22;33342;45.574;9.252;2023-05-07T01:41:01;22.70;99.90
47626;DHT22;33342;45.574;9.252;2023-05-07T01:43:29;22.70;99.90
47626;DHT22;33342;45.574;9.252;2023-05-07T01:45:57;22.60;99.90
47626;DHT22;33342;45.574;9.252;2023-05-07T01:48:26;22.60;99.90
47626;DHT22;33342;45.574;9.252;2023-05-07T01:50:53;22.60;99.90
47626;DHT22;33342;45.574;9.252;2023-05-07T01:53:20;22.60;99.90
47626;DHT22;33342;45.574;9.252;2023-05-07T01:55:47;22.60;99.90
47626;DHT22;33342;45.574;9.252;2023-05-07T01:58:15;22.60;99.90
47626;DHT22;33342;45.574;9.252;2023-05-07T02:00:42;22.60;99.90
47626;DHT22;33342;45.574;9.252;2023-05-07T02:03:09;22.60;99.90
47626;DHT22;33342;45.574;9.252;2023-05-07T02:05:46;22.60;99.90
47626;DHT22;33342;45.574;9.252;2023-05-07T02:08:35;22.60;99.90
47626;DHT22;33342;45.574;9.252;2023-05-07T02:11:02;22.40;99.90
47626;DHT22;33342;45.574;9.252;2023-05-07T02:13:31;22.20;99.90
47626;DHT22;33342;45.574;9.252;2023-05-07T02:15:59;22.00;99.90
47626;DHT22;33342;45.574;9.252;2023-05-07T02:18:27;21.80;99.90
47626;DHT22;33342;45.574;9.252;2023-05-07T02:20:54;21.70;99.90
47626;DHT22;33342;45.574;9.252;2023-05-07T02:23:21;21.70;99.90
47626;DHT22;33342;45.574;9.252;2023-05-07T02:25:48;21.70;99.90
47626;DHT22;33342;45.574;9.252;2023-05-07T02:28:15;21.70;99.90
47626;DHT22;33342;45.574;9.252;2023-05-07T02:30:52;21.70;99.90
47626;DHT22;33342;45.574;9.252;2023-05-07T02:33:20;21.70;99.90
47626;DHT22;33342;45.574;9.252;2023-05-07T02:35:47;21.70;99.90
47626;DHT22;33342;45.574;9.252;2023-05-07T02:38:15;21.70;99.90
47626;DHT22;33342;45.574;9.252;2023-05-07T02:40:43;21.80;99.90
47626;DHT22;33342;45.574;9.252;2023-05-07T02:43:10;21.80;99.90
47626;DHT22;33342;45.574;9.252;2023-05-07T02:45:40;21.80;99.90
47626;DHT22;33342;45.574;9.252;2023-05-07T02:48:08;21.80;99.90
47626;DHT22;33342;45.574;9.252;2023-05-07T02:50:35;21.80;99.90
47626;DHT22;33342;45.574;9.252;2023-05-07T02:53:02;21.70;99.90
47626;DHT22;33342;45.574;9.252;2023-05-07T02:55:29;21.60;99.90
47626;DHT22;33342;45.574;9.252;2023-05-07T02:57:56;21.60;99.90
47626;DHT22;33342;45.574;9.252;2023-05-07T03:00:25;21.60;99.90
47626;DHT22;33342;45.574;9.252;2023-05-07T03:03:11;21.60;99.90
47626;DHT22;33342;45.574;9.252;2023-05-07T03:05:38;21.60;99.90
47626;DHT22;33342;45.574;9.252;2023-05-07T03:08:05;21.60;99.90
47626;DHT22;33342;45.574;9.252;2023-05-07T03:10:32;21.50;99.90
47626;DHT22;33342;45.574;9.252;2023-05-07T03:13:00;21.40;99.90
47626;DHT22;33342;45.574;9.252;2023-05-07T03:15:28;21.40;99.90
47626;DHT22;33342;45.574;9.252;2023-05-07T03:17:55;21.40;99.90
47626;DHT22;33342;45.574;9.252;2023-05-07T03:20:23;21.30;99.90
47626;DHT22;33342;45.574;9.252;2023-05-07T03:22:50;21.40;99.90
47626;DHT22;33342;45.574;9.252;2023-05-07T03:25:17;21.30;99.90
47626;DHT22;33342;45.574;9.252;2023-05-07T03:27:44;21.20;99.90
47626;DHT22;33342;45.574;9.252;2023-05-07T03:30:12;21.10;99.90
47626;DHT22;33342;45.574;9.252;2023-05-07T03:32:39;21.10;99.90
47626;DHT22;33342;45.574;9.252;2023-05-07T03:35:10;21.00;99.90
47626;DHT22;33342;45.574;9.252;2023-05-07T03:37:38;21.00;99.90
47626;DHT22;33342;45.574;9.252;2023-05-07T03:40:06;20.90;99.90
47626;DHT22;33342;45.574;9.252;2023-05-07T03:42:41;20.80;99.90
47626;DHT22;33342;45.574;9.252;2023-05-07T03:45:10;20.70;99.90
47626;DHT22;33342;45.574;9.252;2023-05-07T03:47:40;20.60;99.90
47626;DHT22;33342;45.574;9.252;2023-05-07T03:50:09;20.60;99.90
47626;DHT22;33342;45.574;9.252;2023-05-07T03:52:37;20.60;99.90
47626;DHT22;33342;45.574;9.252;2023-05-07T03:55:08;20.60;99.90
47626;DHT22;33342;45.574;9.252;2023-05-07T03:57:37;20.60;99.90
47626;DHT22;33342;45.574;9.252;2023-05-07T04:00:05;20.50;99.90
47626;DHT22;33342;45.574;9.252;2023-05-07T04:02:46;20.50;99.90
47626;DHT22;33342;45.574;9.252;2023-05-07T04:05:16;20.40;99.90
47626;DHT22;33342;45.574;9.252;2023-05-07T04:07:46;20.40;99.90
47626;DHT22;33342;45.574;9.252;2023-05-07T04:10:17;20.30;99.90
47626;DHT22;33342;45.574;9.252;2023-05-07T04:12:46;20.20;99.90
47626;DHT22;33342;45.574;9.252;2023-05-07T04:15:18;20.20;99.90
47626;DHT22;33342;45.574;9.252;2023-05-07T04:17:45;20.20;99.90
47626;DHT22;33342;45.574;9.252;2023-05-07T04:20:15;20.20;99.90
47626;DHT22;33342;45.574;9.252;2023-05-07T04:22:45;20.20;99.90
47626;DHT22;33342;45.574;9.252;2023-05-07T04:25:12;20.20;99.90
47626;DHT22;33342;45.574;9.252;2023-05-07T04:27:39;20.20;99.90
47626;DHT22;33342;45.574;9.252;2023-05-07T04:30:06;20.20;99.90
47626;DHT22;33342;45.574;9.252;2023-05-07T04:32:38;20.20;99.90
47626;DHT22;33342;45.574;9.252;2023-05-07T04:35:06;20.30;99.90
47626;DHT22;33342;45.574;9.252;2023-05-07T04:37:34;20.30;99.90
47626;DHT22;33342;45.574;9.252;2023-05-07T04:40:02;20.30;99.90
47626;DHT22;33342;45.574;9.252;2023-05-07T04:42:30;20.30;99.90
47626;DHT22;33342;45.574;9.252;2023-05-07T04:45:00;20.40;99.90
47626;DHT22;33342;45.574;9.252;2023-05-07T04:47:31;20.40;99.90
47626;DHT22;33342;45.574;9.252;2023-05-07T04:50:01;20.40;99.90
47626;DHT22;33342;45.574;9.252;2023-05-07T04:52:28;20.40;99.90
47626;DHT22;33342;45.574;9.252;2023-05-07T04:54:55;20.40;99.90
47626;DHT22;33342;45.574;9.252;2023-05-07T04:57:22;20.40;99.90
47626;DHT22;33342;45.574;9.252;2023-05-07T04:59:49;20.40;99.90
47626;DHT22;33342;45.574;9.252;2023-05-07T05:02:16;20.40;99.90
47626;DHT22;33342;45.574;9.252;2023-05-07T05:04:46;20.50;99.90
47626;DHT22;33342;45.574;9.252;2023-05-07T05:07:14;20.50;99.90
47626;DHT22;33342;45.574;9.252;2023-05-07T05:09:41;20.50;99.90
47626;DHT22;33342;45.574;9.252;2023-05-07T05:12:08;20.50;99.90
47626;DHT22;33342;45.574;9.252;2023-05-07T05:14:37;20.40;99.90
47626;DHT22;33342;45.574;9.252;2023-05-07T05:17:04;20.50;99.90
47626;DHT22;33342;45.574;9.252;2023-05-07T05:19:32;20.40;99.90
47626;DHT22;33342;45.574;9.252;2023-05-07T05:21:59;20.30;99.90
47626;DHT22;33342;45.574;9.252;2023-05-07T05:24:28;20.20;99.90
47626;DHT22;33342;45.574;9.252;2023-05-07T05:26:55;20.00;99.90
47626;DHT22;33342;45.574;9.252;2023-05-07T05:29:23;19.90;99.90
47626;DHT22;33342;45.574;9.252;2023-05-07T05:31:50;19.80;99.90
47626;DHT22;33342;45.574;9.252;2023-05-07T05:34:18;19.70;99.90
47626;DHT22;33342;45.574;9.252;2023-05-07T05:36:46;19.70;99.90
47626;DHT22;33342;45.574;9.252;2023-05-07T05:39:14;19.70;99.90
47626;DHT22;33342;45.574;9.252;2023-05-07T05:41:42;19.60;99.90
47626;DHT22;33342;45.574;9.252;2023-05-07T05:44:09;19.60;99.90
47626;DHT22;33342;45.574;9.252;2023-05-07T05:46:36;19.70;99.90
47626;DHT22;33342;45.574;9.252;2023-05-07T05:49:03;19.60;99.90
47626;DHT22;33342;45.574;9.252;2023-05-07T05:51:31;19.70;99.90
47626;DHT22;33342;45.574;9.252;2023-05-07T05:53:58;19.80;99.90
47626;DHT22;33342;45.574;9.252;2023-05-07T05:56:26;19.80;99.90
47626;DHT22;33342;45.574;9.252;2023-05-07T05:58:53;19.90;99.90
47626;DHT22;33342;45.574;9.252;2023-05-07T06:01:20;20.00;99.90
47626;DHT22;33342;45.574;9.252;2023-05-07T06:03:50;20.10;99.90
47626;DHT22;33342;45.574;9.252;2023-05-07T06:06:17;20.20;99.90
47626;DHT22;33342;45.574;9.252;2023-05-07T06:08:45;20.30;99.90
47626;DHT22;33342;45.574;9.252;2023-05-07T06:11:17;20.30;99.90
47626;DHT22;33342;45.574;9.252;2023-05-07T06:13:46;20.40;99.90
47626;DHT22;33342;45.574;9.252;2023-05-07T06:16:13;20.50;99.90
47626;DHT22;33342;45.574;9.252;2023-05-07T06:18:41;20.60;99.90
47626;DHT22;33342;45.574;9.252;2023-05-07T06:21:07;20.60;99.90
47626;DHT22;33342;45.574;9.252;2023-05-07T06:23:35;20.70;99.90
47626;DHT22;33342;45.574;9.252;2023-05-07T06:26:03;20.80;99.90
47626;DHT22;33342;45.574;9.252;2023-05-07T06:28:36;20.80;99.90
47626;DHT22;33342;45.574;9.252;2023-05-07T06:31:18;20.80;99.90
47626;DHT22;33342;45.574;9.252;2023-05-07T06:34:00;20.80;99.90
47626;DHT22;33342;45.574;9.252;2023-05-07T06:36:34;20.80;99.90
47626;DHT22;33342;45.574;9.252;2023-05-07T06:39:10;20.80;99.90
47626;DHT22;33342;45.574;9.252;2023-05-07T06:41:37;20.70;99.90
47626;DHT22;33342;45.574;9.252;2023-05-07T06:44:09;20.70;99.90
47626;DHT22;33342;45.574;9.252;2023-05-07T06:46:41;20.70;99.90
47626;DHT22;33342;45.574;9.252;2023-05-07T06:49:09;20.70;99.90
47626;DHT22;33342;45.574;9.252;2023-05-07T06:51:36;20.60;99.90
47626;DHT22;33342;45.574;9.252;2023-05-07T06:54:03;20.60;99.90
47626;DHT22;33342;45.574;9.252;2023-05-07T06:56:33;20.60;99.90
47626;DHT22;33342;45.574;9.252;2023-05-07T06:59:02;20.60;99.90
47626;DHT22;33342;45.574;9.252;2023-05-07T07:01:34;20.60;99.90
47626;DHT22;33342;45.574;9.252;2023-05-07T07:04:02;20.60;99.90
47626;DHT22;33342;45.574;9.252;2023-05-07T07:06:30;20.60;99.90
47626;DHT22;33342;45.574;9.252;2023-05-07T07:09:00;20.60;99.90
47626;DHT22;33342;45.574;9.252;2023-05-07T07:11:28;20.60;99.90
47626;DHT22;33342;45.574;9.252;2023-05-07T07:13:55;20.60;99.90
47626;DHT22;33342;45.574;9.252;2023-05-07T07:16:22;20.60;99.90
47626;DHT22;33342;45.574;9.252;2023-05-07T07:18:51;20.60;99.90
47626;DHT22;33342;45.574;9.252;2023-05-07T07:21:19;20.60;99.90
47626;DHT22;33342;45.574;9.252;2023-05-07T07:23:46;20.60;99.90
47626;DHT22;33342;45.574;9.252;2023-05-07T07:26:14;20.70;99.90
47626;DHT22;33342;45.574;9.252;2023-05-07T07:28:43;20.70;99.90
47626;DHT22;33342;45.574;9.252;2023-05-07T07:31:14;20.70;99.90
47626;DHT22;33342;45.574;9.252;2023-05-07T07:33:42;20.70;99.90
47626;DHT22;33342;45.574;9.252;2023-05-07T07:36:09;20.80;99.90
47626;DHT22;33342;45.574;9.252;2023-05-07T07:38:37;20.80;99.90
47626;DHT22;33342;45.574;9.252;2023-05-07T07:41:04;20.90;99.90
47626;DHT22;33342;45.574;9.252;2023-05-07T07:43:32;20.90;99.90
47626;DHT22;33342;45.574;9.252;2023-05-07T07:45:59;21.00;99.90
47626;DHT22;33342;45.574;9.252;2023-05-07T07:48:26;21.00;99.90
47626;DHT22;33342;45.574;9.252;2023-05-07T07:50:54;21.00;99.90
47626;DHT22;33342;45.574;9.252;2023-05-07T07:53:22;21.00;99.90
47626;DHT22;33342;45.574;9.252;2023-05-07T07:55:49;21.10;99.90
47626;DHT22;33342;45.574;9.252;2023-05-07T07:58:19;21.10;99.90
47626;DHT22;33342;45.574;9.252;2023-05-07T08:00:46;21.10;99.90
47626;DHT22;33342;45.574;9.252;2023-05-07T08:03:15;21.20;99.90
47626;DHT22;33342;45.574;9.252;2023-05-07T08:05:47;21.20;99.90
47626;DHT22;33342;45.574;9.252;2023-05-07T08:08:16;21.20;99.90
47626;DHT22;33342;45.574;9.252;2023-05-07T08:10:43;21.30;99.90
47626;DHT22;33342;45.574;9.252;2023-05-07T08:13:19;21.30;99.90
47626;DHT22;33342;45.574;9.252;2023-05-07T08:15:46;21.40;99.90
47626;DHT22;33342;45.574;9.252;2023-05-07T08:18:14;21.50;99.90
47626;DHT22;33342;45.574;9.252;2023-05-07T08:20:42;21.50;99.90
47626;DHT22;33342;45.574;9.252;2023-05-07T08:23:14;21.60;99.90
47626;DHT22;33342;45.574;9.252;2023-05-07T08:25:43;21.70;99.90
47626;DHT22;33342;45.574;9.252;2023-05-07T08:28:11;21.80;99.90
47626;DHT22;33342;45.574;9.252;2023-05-07T08:30:38;21.90;99.90
47626;DHT22;33342;45.574;9.252;2023-05-07T08:33:06;22.00;99.90
47626;DHT22;33342;45.574;9.252;2023-05-07T08:35:35;22.00;99.90
47626;DHT22;33342;45.574;9.252;2023-05-07T08:38:02;22.10;99.90
47626;DHT22;33342;45.574;9.252;2023-05-07T08:40:36;22.20;99.90
47626;DHT22;33342;45.574;9.252;2023-05-07T08:43:05;22.20;99.90
47626;DHT22;33342;45.574;9.252;2023-05-07T08:45:34;22.30;99.90
47626;DHT22;33342;45.574;9.252;2023-05-07T08:48:08;22.30;99.90
47626;DHT22;33342;45.574;9.252;2023-05-07T08:50:36;22.40;99.90
47626;DHT22;33342;45.574;9.252;2023-05-07T08:53:04;22.30;99.90
47626;DHT22;33342;45.574;9.252;2023-05-07T08:55:32;22.30;99.90
47626;DHT22;33342;45.574;9.252;2023-05-07T08:58:00;22.30;99.90
47626;DHT22;33342;45.574;9.252;2023-05-07T09:00:32;22.30;99.90
47626;DHT22;33342;45.574;9.252;2023-05-07T09:03:01;22.40;99.90
47626;DHT22;33342;45.574;9.252;2023-05-07T09:05:28;22.50;99.90
47626;DHT22;33342;45.574;9.252;2023-05-07T09:07:59;22.50;99.90
47626;DHT22;33342;45.574;9.252;2023-05-07T09:10:26;22.60;99.90
47626;DHT22;33342;45.574;9.252;2023-05-07T09:12:54;22.70;99.90
47626;DHT22;33342;45.574;9.252;2023-05-07T09:15:21;22.70;99.90
47626;DHT22;33342;45.574;9.252;2023-05-07T09:17:48;22.70;99.90
47626;DHT22;33342;45.574;9.252;2023-05-07T09:20:16;22.70;99.90
47626;DHT22;33342;45.574;9.252;2023-05-07T09:22:43;22.70;99.90
47626;DHT22;33342;45.574;9.252;2023-05-07T09:25:14;22.80;99.90
47626;DHT22;33342;45.574;9.252;2023-05-07T09:27:42;22.80;99.90
47626;DHT22;33342;45.574;9.252;2023-05-07T09:30:09;22.80;99.90
47626;DHT22;33342;45.574;9.252;2023-05-07T09:32:37;22.90;99.90
47626;DHT22;33342;45.574;9.252;2023-05-07T09:35:17;23.00;99.90
47626;DHT22;33342;45.574;9.252;2023-05-07T09:37:49;23.00;99.90
47626;DHT22;33342;45.574;9.252;2023-05-07T09:40:21;23.00;99.90
47626;DHT22;33342;45.574;9.252;2023-05-07T09:42:49;23.00;99.90
47626;DHT22;33342;45.574;9.252;2023-05-07T09:45:27;23.00;99.90
47626;DHT22;33342;45.574;9.252;2023-05-07T09:47:57;23.10;99.90
47626;DHT22;33342;45.574;9.252;2023-05-07T09:50:35;23.10;99.90
47626;DHT22;33342;45.574;9.252;2023-05-07T09:53:04;23.20;99.90
47626;DHT22;33342;45.574;9.252;2023-05-07T09:55:31;23.20;99.90
47626;DHT22;33342;45.574;9.252;2023-05-07T09:57:58;23.20;99.90
47626;DHT22;33342;45.574;9.252;2023-05-07T10:00:28;23.30;99.90
47626;DHT22;33342;45.574;9.252;2023-05-07T10:03:04;23.30;99.90
47626;DHT22;33342;45.574;9.252;2023-05-07T10:05:42;23.30;99.90
47626;DHT22;33342;45.574;9.252;2023-05-07T10:08:12;23.40;99.90
47626;DHT22;33342;45.574;9.252;2023-05-07T10:10:40;23.40;99.90
47626;DHT22;33342;45.574;9.252;2023-05-07T10:13:11;23.40;99.90
47626;DHT22;33342;45.574;9.252;2023-05-07T10:15:44;23.50;99.90
47626;DHT22;33342;45.574;9.252;2023-05-07T10:18:12;23.50;99.90
47626;DHT22;33342;45.574;9.252;2023-05-07T10:20:42;23.50;99.90
47626;DHT22;33342;45.574;9.252;2023-05-07T10:23:13;23.50;99.90
47626;DHT22;33342;45.574;9.252;2023-05-07T10:25:45;23.50;99.90
47626;DHT22;33342;45.574;9.252;2023-05-07T10:28:23;23.50;99.90
47626;DHT22;33342;45.574;9.252;2023-05-07T10:33:37;23.50;99.90
47626;DHT22;33342;45.574;9.252;2023-05-07T10:36:05;23.50;99.90
47626;DHT22;33342;45.574;9.252;2023-05-07T10:38:34;23.50;99.90
47626;DHT22;33342;45.574;9.252;2023-05-07T10:41:02;23.50;99.90
47626;DHT22;33342;45.574;9.252;2023-05-07T10:43:40;23.40;99.90
47626;DHT22;33342;45.574;9.252;2023-05-07T10:46:17;23.40;99.90
47626;DHT22;33342;45.574;9.252;2023-05-07T10:51:35;23.40;99.90
47626;DHT22;33342;45.574;9.252;2023-05-07T10:56:55;23.40;99.90
47626;DHT22;33342;45.574;9.252;2023-05-07T10:59:31;23.40;99.90
47626;DHT22;33342;45.574;9.252;2023-05-07T11:02:07;23.40;99.90
47626;DHT22;33342;45.574;9.252;2023-05-07T11:05:19;23.40;99.90
47626;DHT22;33342;45.574;9.252;2023-05-07T11:08:00;23.50;99.90
47626;DHT22;33342;45.574;9.252;2023-05-07T11:10:55;23.50;99.90
47626;DHT22;33342;45.574;9.252;2023-05-07T11:13:46;23.60;99.90
47626;DHT22;33342;45.574;9.252;2023-05-07T11:16:24;23.60;99.90
47626;DHT22;33342;45.574;9.252;2023-05-07T11:19:04;23.60;99.90
47626;DHT22;33342;45.574;9.252;2023-05-07T11:21:40;23.70;99.90
47626;DHT22;33342;45.574;9.252;2023-05-07T11:24:40;23.70;99.90
47626;DHT22;33342;45.574;9.252;2023-05-07T11:27:12;23.70;99.90
47626;DHT22;33342;45.574;9.252;2023-05-07T11:29:46;23.70;99.90
47626;DHT22;33342;45.574;9.252;2023-05-07T11:32:23;23.70;99.90
47626;DHT22;33342;45.574;9.252;2023-05-07T11:34:54;23.80;99.90
47626;DHT22;33342;45.574;9.252;2023-05-07T11:37:25;23.80;99.90
47626;DHT22;33342;45.574;9.252;2023-05-07T11:40:08;23.90;99.90
47626;DHT22;33342;45.574;9.252;2023-05-07T11:42:39;23.90;99.90
47626;DHT22;33342;45.574;9.252;2023-05-07T11:45:09;23.90;99.90
47626;DHT22;33342;45.574;9.252;2023-05-07T11:47:38;24.00;99.90
47626;DHT22;33342;45.574;9.252;2023-05-07T11:50:11;24.00;99.90
47626;DHT22;33342;45.574;9.252;2023-05-07T11:52:39;24.10;99.90
47626;DHT22;33342;45.574;9.252;2023-05-07T11:55:07;24.20;99.90
47626;DHT22;33342;45.574;9.252;2023-05-07T11:57:36;24.30;99.90
47626;DHT22;33342;45.574;9.252;2023-05-07T12:00:05;24.30;99.90
47626;DHT22;33342;45.574;9.252;2023-05-07T12:02:39;24.30;99.90
47626;DHT22;33342;45.574;9.252;2023-05-07T12:05:08;24.40;99.90
47626;DHT22;33342;45.574;9.252;2023-05-07T12:07:38;24.50;99.90
47626;DHT22;33342;45.574;9.252;2023-05-07T12:10:06;24.50;99.90
47626;DHT22;33342;45.574;9.252;2023-05-07T12:12:40;24.60;99.90
47626;DHT22;33342;45.574;9.252;2023-05-07T12:15:09;24.70;99.90
47626;DHT22;33342;45.574;9.252;2023-05-07T12:17:37;24.90;99.90
47626;DHT22;33342;45.574;9.252;2023-05-07T12:20:05;24.90;99.90
47626;DHT22;33342;45.574;9.252;2023-05-07T12:22:33;25.00;99.90
47626;DHT22;33342;45.574;9.252;2023-05-07T12:24:59;25.10;99.90
47626;DHT22;33342;45.574;9.252;2023-05-07T12:27:27;25.20;99.90
47626;DHT22;33342;45.574;9.252;2023-05-07T12:29:54;25.20;99.90
47626;DHT22;33342;45.574;9.252;2023-05-07T12:32:21;25.30;99.90
47626;DHT22;33342;45.574;9.252;2023-05-07T12:34:51;25.30;99.90
47626;DHT22;33342;45.574;9.252;2023-05-07T12:37:24;25.30;99.90
47626;DHT22;33342;45.574;9.252;2023-05-07T12:40:10;25.30;99.90
47626;DHT22;33342;45.574;9.252;2023-05-07T12:42:39;25.40;99.90
47626;DHT22;33342;45.574;9.252;2023-05-07T12:45:15;25.40;99.90
47626;DHT22;33342;45.574;9.252;2023-05-07T12:47:46;25.40;99.90
47626;DHT22;33342;45.574;9.252;2023-05-07T12:50:15;25.50;99.90
47626;DHT22;33342;45.574;9.252;2023-05-07T12:52:45;25.50;99.90
47626;DHT22;33342;45.574;9.252;2023-05-07T12:55:17;25.60;99.90
47626;DHT22;33342;45.574;9.252;2023-05-07T12:57:48;25.70;99.90
47626;DHT22;33342;45.574;9.252;2023-05-07T13:00:15;25.70;99.90
47626;DHT22;33342;45.574;9.252;2023-05-07T13:02:44;25.80;99.90
47626;DHT22;33342;45.574;9.252;2023-05-07T13:05:12;25.90;99.90
47626;DHT22;33342;45.574;9.252;2023-05-07T13:07:39;25.90;99.90
47626;DHT22;33342;45.574;9.252;2023-05-07T13:10:08;25.90;99.90
47626;DHT22;33342;45.574;9.252;2023-05-07T13:12:35;26.10;99.90
47626;DHT22;33342;45.574;9.252;2023-05-07T13:15:03;26.10;99.90
47626;DHT22;33342;45.574;9.252;2023-05-07T13:17:30;26.20;99.90
47626;DHT22;33342;45.574;9.252;2023-05-07T13:19:58;26.20;99.90
47626;DHT22;33342;45.574;9.252;2023-05-07T13:22:25;26.20;99.90
47626;DHT22;33342;45.574;9.252;2023-05-07T13:24:52;26.30;99.90
47626;DHT22;33342;45.574;9.252;2023-05-07T13:27:19;26.40;99.90
47626;DHT22;33342;45.574;9.252;2023-05-07T13:29:47;26.40;99.90
47626;DHT22;33342;45.574;9.252;2023-05-07T13:32:14;26.50;99.90
47626;DHT22;33342;45.574;9.252;2023-05-07T13:34:41;26.50;99.90
47626;DHT22;33342;45.574;9.252;2023-05-07T13:37:08;26.50;99.90
47626;DHT22;33342;45.574;9.252;2023-05-07T13:39:37;26.60;99.90
47626;DHT22;33342;45.574;9.252;2023-05-07T13:42:04;26.60;99.90
47626;DHT22;33342;45.574;9.252;2023-05-07T13:44:31;26.70;99.90
47626;DHT22;33342;45.574;9.252;2023-05-07T13:46:58;26.70;99.90
47626;DHT22;33342;45.574;9.252;2023-05-07T13:49:25;26.80;99.90
47626;DHT22;33342;45.574;9.252;2023-05-07T13:51:52;26.80;99.90
47626;DHT22;33342;45.574;9.252;2023-05-07T13:54:19;26.90;99.90
47626;DHT22;33342;45.574;9.252;2023-05-07T13:56:46;27.10;99.90
47626;DHT22;33342;45.574;9.252;2023-05-07T13:59:14;27.20;99.90
47626;DHT22;33342;45.574;9.252;2023-05-07T14:01:41;27.30;99.90
47626;DHT22;33342;45.574;9.252;2023-05-07T14:04:08;27.30;99.90
47626;DHT22;33342;45.574;9.252;2023-05-07T14:06:35;27.30;99.90
47626;DHT22;33342;45.574;9.252;2023-05-07T14:09:02;27.30;99.90
47626;DHT22;33342;45.574;9.252;2023-05-07T14:11:29;27.30;99.90
47626;DHT22;33342;45.574;9.252;2023-05-07T14:13:58;27.40;99.90
47626;DHT22;33342;45.574;9.252;2023-05-07T14:16:25;27.50;99.90
47626;DHT22;33342;45.574;9.252;2023-05-07T14:18:52;27.60;99.90
47626;DHT22;33342;45.574;9.252;2023-05-07T14:21:24;27.70;99.90
47626;DHT22;33342;45.574;9.252;2023-05-07T14:23:51;27.70;99.90
47626;DHT22;33342;45.574;9.252;2023-05-07T14:26:18;27.70;99.90
47626;DHT22;33342;45.574;9.252;2023-05-07T14:28:45;27.70;99.90
47626;DHT22;33342;45.574;9.252;2023-05-07T14:31:13;27.70;99.90
47626;DHT22;33342;45.574;9.252;2023-05-07T14:33:40;27.70;99.90
47626;DHT22;33342;45.574;9.252;2023-05-07T14:36:08;27.80;99.90
47626;DHT22;33342;45.574;9.252;2023-05-07T14:38:35;27.90;99.90
47626;DHT22;33342;45.574;9.252;2023-05-07T14:41:02;27.90;99.90
47626;DHT22;33342;45.574;9.252;2023-05-07T14:43:30;27.90;99.90
47626;DHT22;33342;45.574;9.252;2023-05-07T14:45:56;28.10;99.90
47626;DHT22;33342;45.574;9.252;2023-05-07T14:48:23;28.10;99.90
47626;DHT22;33342;45.574;9.252;2023-05-07T14:50:50;28.20;99.90
47626;DHT22;33342;45.574;9.252;2023-05-07T14:53:17;28.20;99.90
47626;DHT22;33342;45.574;9.252;2023-05-07T14:55:44;28.10;99.90
47626;DHT22;33342;45.574;9.252;2023-05-07T14:58:11;27.90;99.90
47626;DHT22;33342;45.574;9.252;2023-05-07T15:00:38;27.80;99.90
47626;DHT22;33342;45.574;9.252;2023-05-07T15:03:07;27.70;99.90
47626;DHT22;33342;45.574;9.252;2023-05-07T15:05:35;27.60;99.90
47626;DHT22;33342;45.574;9.252;2023-05-07T15:08:02;27.60;99.90
47626;DHT22;33342;45.574;9.252;2023-05-07T15:10:30;27.50;99.90
47626;DHT22;33342;45.574;9.252;2023-05-07T15:12:56;27.40;99.90
47626;DHT22;33342;45.574;9.252;2023-05-07T15:15:23;27.40;99.90
47626;DHT22;33342;45.574;9.252;2023-05-07T15:17:52;27.40;99.90
47626;DHT22;33342;45.574;9.252;2023-05-07T15:20:19;27.30;99.90
47626;DHT22;33342;45.574;9.252;2023-05-07T15:22:46;27.30;99.90
47626;DHT22;33342;45.574;9.252;2023-05-07T15:25:13;27.20;99.90
47626;DHT22;33342;45.574;9.252;2023-05-07T15:27:41;27.20;99.90
47626;DHT22;33342;45.574;9.252;2023-05-07T15:30:08;27.30;99.90
47626;DHT22;33342;45.574;9.252;2023-05-07T15:32:37;27.30;99.90
47626;DHT22;33342;45.574;9.252;2023-05-07T15:35:05;27.30;99.90
47626;DHT22;33342;45.574;9.252;2023-05-07T15:37:33;27.30;99.90
47626;DHT22;33342;45.574;9.252;2023-05-07T15:40:01;27.30;99.90
47626;DHT22;33342;45.574;9.252;2023-05-07T15:42:33;27.40;99.90
47626;DHT22;33342;45.574;9.252;2023-05-07T15:45:00;27.40;99.90
47626;DHT22;33342;45.574;9.252;2023-05-07T15:47:29;27.40;99.90
47626;DHT22;33342;45.574;9.252;2023-05-07T15:49:59;27.50;99.90
47626;DHT22;33342;45.574;9.252;2023-05-07T15:52:26;27.60;99.90